Terminal Aerodrome Forecast
Issued by NWS

Home | Current Version | Previous Version | Text Only | Print | Product List | Glossary Off
Versions: 1 2 3 4 5 6 7 8 9 10 11 12 13 14 15 16 17 18 19 20 21

698
FTUS43 KBIS 221631 AAB
TAFJMS
TAF AMD
KJMS 221631Z 2217/2312 34016G25KT P6SM BKN130
     FM221900 34016G26KT P6SM VCSH BKN045
     FM230000 35014KT P6SM OVC035
     FM230400 34009KT P6SM BKN025
     FM230700 35011KT P6SM BKN015=

USA.gov is the U.S. government's official web portal to all federal, state and local government web resources and services.